Flight Track Log - Related Links

Times and Time Zones

All times are in EDT time to prevent confusion due to time zone crossing. See the GUG700 flight status page for this flight to view local times or setup timezone preferences in your user account.

Time Position Orientation Groundspeed Altitude Reporting Facility
EDT Latitude Longitude Course Direction KTS MPH feet Rate Location/Type
Wed 06:47:32 PM 14.2495 -88.3774 279° West  Level Estimated
Wed 06:48:32 PM 14.2601 -88.4437 279° West  Level Estimated
Wed 06:49:32 PM 14.2706 -88.5099 279° West  Level Estimated
Wed 06:50:32 PM 14.2812 -88.5761 279° West  Level Estimated
Wed 06:51:32 PM 14.2917 -88.6424 279° West  Level Estimated
Wed 06:52:32 PM 14.3022 -88.7087 279° West  Level Estimated
Wed 06:53:32 PM 14.3127 -88.7749 279° West  Level Estimated
Wed 06:54:32 PM 14.3232 -88.8412 279° West  Level Estimated
Wed 06:55:32 PM 14.3337 -88.9075 279° West  Level Estimated
Wed 06:56:32 PM 14.3441 -88.9737 279° West  Level Estimated
Wed 06:57:32 PM 14.3545 -89.0400 279° West  Level Estimated
Wed 06:58:32 PM 14.3649 -89.1063 279° West  Level Estimated
Wed 06:59:32 PM 14.3753 -89.1726 279° West  Level Estimated
Wed 07:00:32 PM 14.3857 -89.2389 279° West  Level Estimated
Wed 07:01:32 PM 14.3960 -89.3052 279° West  Level Estimated
Wed 07:02:32 PM 14.4064 -89.3716 279° West  Level Estimated
Wed 07:03:32 PM 14.4167 -89.4379 279° West  Level Estimated
Wed 07:04:32 PM 14.4270 -89.5042 279° West  Level Estimated
Wed 07:05:32 PM 14.4372 -89.5705 279° West  Level Estimated
Wed 07:06:32 PM 14.4475 -89.6369 279° West  Level Estimated
Wed 07:07:32 PM 14.4577 -89.7032 279° West  Level Estimated
Wed 07:08:32 PM 14.4679 -89.7696 279° West  Level Estimated
Wed 07:09:32 PM 14.4782 -89.8360 279° West  Level Estimated
Wed 07:10:32 PM 14.4883 -89.9023 279° West  Level Estimated
Wed 07:11:32 PM 14.4985 -89.9687 279° West  Level Estimated
Wed 07:12:32 PM 14.5086 -90.0351 279° West  Level Estimated
Wed 07:13:32 PM 14.5188 -90.1015 279° West  Level Estimated
Wed 07:14:32 PM 14.5289 -90.1678 279° West  Level Estimated
Wed 07:15:32 PM 14.5390 -90.2342 279° West  Level Estimated
Wed 07:16:32 PM 14.5490 -90.3006 279° West  Level Estimated
Wed 07:17:32 PM 14.5591 -90.3671 279° West  Level Estimated
Wed 07:18:32 PM 14.5691 -90.4335 279° West  Level Estimated
Wed 07:19:32 PM 14.5791 -90.4999 279° West  Level Estimated
Wed 07:20:32 PM 14.5891 -90.5663 99° East  Level Estimated
Wed 07:21:32 PM 14.5791 -90.4999 279° West  Level Estimated
Wed 07:22:32 PM 14.5891 -90.5663 99° East  Level Estimated
Wed 07:23:32 PM 14.5791 -90.4999 279° West  Level Estimated
Wed 07:24:32 PM 14.5891 -90.5663 99° East  Level Estimated
Wed 07:25:32 PM 14.5791 -90.4999 279° West  Level Estimated
Wed 07:26:32 PM 14.5891 -90.5663 99° East  Level Estimated
Wed 07:27:32 PM 14.5791 -90.4999 279° West  Level Estimated
Wed 07:28:32 PM 14.5891 -90.5663 99° East  Level Estimated
Wed 07:29:32 PM 14.5791 -90.4999 279° West  Level Estimated
Wed 07:30:32 PM 14.5891 -90.5663 99° East  Level Estimated
Wed 07:31:32 PM 14.5791 -90.4999 279° West  Level Estimated
Wed 07:32:32 PM 14.5891 -90.5663 99° East  Level Estimated
Wed 07:33:32 PM 14.5791 -90.4999 279° West  Level Estimated
Wed 07:34:32 PM 14.5891 -90.5663 99° East  Level Estimated
Wed 07:35:32 PM 14.5791 -90.4999 99° East  Level Estimated

Login

Don't have an account? Register now (free) for customized features, flight alerts, and more!